sensor_id;sensor_type;location;lat;lon;timestamp;pressure;altitude;pressure_sealevel;temperature;humidity
70976;BME280;58635;51.198;6.010;2023-02-03T00:01:18;102381.75;;;11.92;64.37
70976;BME280;58635;51.198;6.010;2023-02-03T00:03:43;102385.97;;;11.93;64.46
70976;BME280;58635;51.198;6.010;2023-02-03T00:06:09;102382.56;;;11.92;64.22
70976;BME280;58635;51.198;6.010;2023-02-03T00:08:35;102373.00;;;11.93;64.28
70976;BME280;58635;51.198;6.010;2023-02-03T00:11:02;102371.03;;;11.95;64.06
70976;BME280;58635;51.198;6.010;2023-02-03T00:13:28;102377.03;;;11.95;64.07
70976;BME280;58635;51.198;6.010;2023-02-03T00:15:53;102381.41;;;11.95;64.13
70976;BME280;58635;51.198;6.010;2023-02-03T00:18:19;102375.28;;;11.96;64.29
70976;BME280;58635;51.198;6.010;2023-02-03T00:20:44;102369.25;;;11.95;64.17
70976;BME280;58635;51.198;6.010;2023-02-03T00:23:11;102365.84;;;11.95;64.08
70976;BME280;58635;51.198;6.010;2023-02-03T00:25:37;102371.84;;;11.95;64.17
70976;BME280;58635;51.198;6.010;2023-02-03T00:28:03;102367.00;;;11.92;64.21
70976;BME280;58635;51.198;6.010;2023-02-03T00:30:30;102371.38;;;11.92;64.23
70976;BME280;58635;51.198;6.010;2023-02-03T00:32:55;102372.03;;;11.94;64.26
70976;BME280;58635;51.198;6.010;2023-02-03T00:35:21;102364.06;;;11.95;64.06
70976;BME280;58635;51.198;6.010;2023-02-03T00:37:51;102352.75;;;11.96;64.07
70976;BME280;58635;51.198;6.010;2023-02-03T00:40:18;102346.75;;;11.96;64.05
70976;BME280;58635;51.198;6.010;2023-02-03T00:42:44;102357.78;;;11.98;64.18
70976;BME280;58635;51.198;6.010;2023-02-03T00:45:09;102355.00;;;11.99;63.97
70976;BME280;58635;51.198;6.010;2023-02-03T00:47:35;102361.16;;;11.98;63.95
70976;BME280;58635;51.198;6.010;2023-02-03T00:50:00;102369.25;;;11.95;63.90
70976;BME280;58635;51.198;6.010;2023-02-03T00:52:26;102369.13;;;11.97;64.15
70976;BME280;58635;51.198;6.010;2023-02-03T00:54:51;102361.00;;;12.00;63.95
70976;BME280;58635;51.198;6.010;2023-02-03T00:57:16;102368.94;;;11.98;64.20
70976;BME280;58635;51.198;6.010;2023-02-03T00:59:42;102371.03;;;11.95;63.92
70976;BME280;58635;51.198;6.010;2023-02-03T01:02:07;102379.50;;;11.97;64.11
70976;BME280;58635;51.198;6.010;2023-02-03T01:04:32;102377.53;;;11.99;63.96
70976;BME280;58635;51.198;6.010;2023-02-03T01:06:58;102387.09;;;11.98;63.94
70976;BME280;58635;51.198;6.010;2023-02-03T01:09:24;102380.94;;;11.99;63.84
70976;BME280;58635;51.198;6.010;2023-02-03T01:11:50;102393.75;;;12.01;64.12
70976;BME280;58635;51.198;6.010;2023-02-03T01:14:15;102400.53;;;12.02;63.83
70976;BME280;58635;51.198;6.010;2023-02-03T01:16:40;102403.13;;;12.02;64.01
70976;BME280;58635;51.198;6.010;2023-02-03T01:19:06;102402.97;;;12.04;63.88
70976;BME280;58635;51.198;6.010;2023-02-03T01:21:32;102401.19;;;12.04;63.77
70976;BME280;58635;51.198;6.010;2023-02-03T01:23:58;102402.63;;;12.07;63.74
70976;BME280;58635;51.198;6.010;2023-02-03T01:26:24;102401.69;;;12.08;63.86
70976;BME280;58635;51.198;6.010;2023-02-03T01:28:54;102410.41;;;12.07;63.75
70976;BME280;58635;51.198;6.010;2023-02-03T01:31:26;102419.19;;;12.06;63.87
70976;BME280;58635;51.198;6.010;2023-02-03T01:33:53;102425.16;;;12.06;63.58
70976;BME280;58635;51.198;6.010;2023-02-03T01:36:21;102418.06;;;12.08;63.61
70976;BME280;58635;51.198;6.010;2023-02-03T01:38:47;102427.63;;;12.08;63.40
70976;BME280;58635;51.198;6.010;2023-02-03T01:41:18;102427.47;;;12.09;63.71
70976;BME280;58635;51.198;6.010;2023-02-03T01:43:46;102424.19;;;12.07;63.65
70976;BME280;58635;51.198;6.010;2023-02-03T01:48:46;102409.31;;;12.09;63.51
70976;BME280;58635;51.198;6.010;2023-02-03T01:51:12;102407.53;;;12.10;63.45
70976;BME280;58635;51.198;6.010;2023-02-03T01:53:38;102412.72;;;12.10;63.43
70976;BME280;58635;51.198;6.010;2023-02-03T01:56:04;102392.78;;;12.10;63.55
70976;BME280;58635;51.198;6.010;2023-02-03T01:58:32;102396.16;;;12.11;63.55
70976;BME280;58635;51.198;6.010;2023-02-03T02:01:00;102397.78;;;12.12;63.53
70976;BME280;58635;51.198;6.010;2023-02-03T02:03:31;102405.56;;;12.12;63.48
70976;BME280;58635;51.198;6.010;2023-02-03T02:06:10;102410.75;;;12.12;63.35
70976;BME280;58635;51.198;6.010;2023-02-03T02:08:37;102416.91;;;12.11;63.53
70976;BME280;58635;51.198;6.010;2023-02-03T02:11:06;102418.53;;;12.12;63.20
70976;BME280;58635;51.198;6.010;2023-02-03T02:13:33;102406.22;;;12.14;63.45
70976;BME280;58635;51.198;6.010;2023-02-03T02:16:15;102401.03;;;12.14;63.43
70976;BME280;58635;51.198;6.010;2023-02-03T02:19:00;102399.41;;;12.13;63.30
70976;BME280;58635;51.198;6.010;2023-02-03T02:24:40;102389.03;;;12.13;63.45
70976;BME280;58635;51.198;6.010;2023-02-03T02:32:50;102377.84;;;12.12;63.45
70976;BME280;58635;51.198;6.010;2023-02-03T02:35:46;102366.66;;;12.12;63.15
70976;BME280;58635;51.198;6.010;2023-02-03T02:38:34;102379.81;;;12.10;63.17
70976;BME280;58635;51.198;6.010;2023-02-03T02:44:00;102376.22;;;12.11;63.19
70976;BME280;58635;51.198;6.010;2023-02-03T02:46:37;102375.25;;;12.12;63.31
70976;BME280;58635;51.198;6.010;2023-02-03T02:49:08;102372.50;;;12.14;62.97
70976;BME280;58635;51.198;6.010;2023-02-03T02:51:38;102373.00;;;12.09;63.13
70976;BME280;58635;51.198;6.010;2023-02-03T02:54:07;102379.81;;;12.10;63.11
70976;BME280;58635;51.198;6.010;2023-02-03T02:56:35;102379.97;;;12.09;63.33
70976;BME280;58635;51.198;6.010;2023-02-03T02:59:05;102380.59;;;12.11;63.16
70976;BME280;58635;51.198;6.010;2023-02-03T03:01:31;102383.38;;;12.09;63.22
70976;BME280;58635;51.198;6.010;2023-02-03T03:03:59;102381.59;;;12.10;63.25
70976;BME280;58635;51.198;6.010;2023-02-03T03:09:08;102371.50;;;12.07;63.09
70976;BME280;58635;51.198;6.010;2023-02-03T03:11:39;102375.41;;;12.11;63.17
70976;BME280;58635;51.198;6.010;2023-02-03T03:14:09;102376.22;;;12.11;62.85
70976;BME280;58635;51.198;6.010;2023-02-03T03:16:38;102368.78;;;12.08;63.02
70976;BME280;58635;51.198;6.010;2023-02-03T03:19:15;102376.06;;;12.13;63.10
70976;BME280;58635;51.198;6.010;2023-02-03T03:21:46;102372.81;;;12.11;62.83
70976;BME280;58635;51.198;6.010;2023-02-03T03:24:18;102377.22;;;12.10;63.00
70976;BME280;58635;51.198;6.010;2023-02-03T03:29:30;102379.63;;;12.04;63.13
70976;BME280;58635;51.198;6.010;2023-02-03T03:32:00;102377.03;;;12.04;63.04
70976;BME280;58635;51.198;6.010;2023-02-03T03:34:25;102386.28;;;12.06;62.82
70976;BME280;58635;51.198;6.010;2023-02-03T03:36:57;102379.97;;;12.09;63.01
70976;BME280;58635;51.198;6.010;2023-02-03T03:39:47;102372.81;;;12.11;63.06
70976;BME280;58635;51.198;6.010;2023-02-03T03:45:00;102375.41;;;12.11;62.91
70976;BME280;58635;51.198;6.010;2023-02-03T03:47:37;102373.81;;;12.10;62.70
70976;BME280;58635;51.198;6.010;2023-02-03T03:50:07;102377.22;;;12.10;62.58
70976;BME280;58635;51.198;6.010;2023-02-03T03:52:35;102379.47;;;12.13;62.43
70976;BME280;58635;51.198;6.010;2023-02-03T03:55:02;102371.69;;;12.13;62.47
70976;BME280;58635;51.198;6.010;2023-02-03T03:57:41;102374.44;;;12.12;62.31
70976;BME280;58635;51.198;6.010;2023-02-03T04:00:11;102371.03;;;12.11;62.40
70976;BME280;58635;51.198;6.010;2023-02-03T04:02:41;102370.41;;;12.09;62.49
70976;BME280;58635;51.198;6.010;2023-02-03T04:05:11;102357.44;;;12.09;62.58
70976;BME280;58635;51.198;6.010;2023-02-03T04:07:40;102343.50;;;12.10;62.35
70976;BME280;58635;51.198;6.010;2023-02-03T04:10:15;102344.47;;;12.09;62.48
70976;BME280;58635;51.198;6.010;2023-02-03T04:12:42;102342.69;;;12.10;62.61
70976;BME280;58635;51.198;6.010;2023-02-03T04:15:07;102343.50;;;12.10;62.45
70976;BME280;58635;51.198;6.010;2023-02-03T04:17:33;102352.88;;;12.11;62.32
70976;BME280;58635;51.198;6.010;2023-02-03T04:20:01;102359.34;;;12.15;62.33
70976;BME280;58635;51.198;6.010;2023-02-03T04:22:26;102357.41;;;12.17;62.31
70976;BME280;58635;51.198;6.010;2023-02-03T04:24:52;102354.63;;;12.19;61.95
70976;BME280;58635;51.198;6.010;2023-02-03T04:27:17;102357.41;;;12.17;62.08
70976;BME280;58635;51.198;6.010;2023-02-03T04:29:42;102359.81;;;12.19;62.12
70976;BME280;58635;51.198;6.010;2023-02-03T04:32:08;102356.44;;;12.18;62.24
70976;BME280;58635;51.198;6.010;2023-02-03T04:34:33;102366.78;;;12.18;62.20
70976;BME280;58635;51.198;6.010;2023-02-03T04:36:58;102366.78;;;12.18;62.05
70976;BME280;58635;51.198;6.010;2023-02-03T04:39:24;102376.38;;;12.18;62.19
70976;BME280;58635;51.198;6.010;2023-02-03T04:41:49;102368.41;;;12.19;62.20
70976;BME280;58635;51.198;6.010;2023-02-03T04:44:15;102362.28;;;12.20;62.03
70976;BME280;58635;51.198;6.010;2023-02-03T04:46:40;102370.88;;;12.21;62.22
70976;BME280;58635;51.198;6.010;2023-02-03T04:49:05;102359.50;;;12.22;62.23
70976;BME280;58635;51.198;6.010;2023-02-03T04:51:31;102368.28;;;12.21;61.98
70976;BME280;58635;51.198;6.010;2023-02-03T04:53:56;102361.31;;;12.21;62.11
70976;BME280;58635;51.198;6.010;2023-02-03T04:56:21;102354.31;;;12.22;61.90
70976;BME280;58635;51.198;6.010;2023-02-03T04:58:47;102353.53;;;12.21;61.83
70976;BME280;58635;51.198;6.010;2023-02-03T05:01:12;102362.75;;;12.24;62.02
70976;BME280;58635;51.198;6.010;2023-02-03T05:03:38;102359.00;;;12.18;61.79
70976;BME280;58635;51.198;6.010;2023-02-03T05:06:03;102360.50;;;12.21;61.73
70976;BME280;58635;51.198;6.010;2023-02-03T05:08:29;102364.69;;;12.22;61.78
70976;BME280;58635;51.198;6.010;2023-02-03T05:10:55;102370.69;;;12.22;61.80
70976;BME280;58635;51.198;6.010;2023-02-03T05:13:20;102363.72;;;12.23;61.73
70976;BME280;58635;51.198;6.010;2023-02-03T05:15:46;102361.13;;;12.23;61.63
70976;BME280;58635;51.198;6.010;2023-02-03T05:18:11;102363.72;;;12.23;61.52
70976;BME280;58635;51.198;6.010;2023-02-03T05:20:36;102363.72;;;12.23;61.68
70976;BME280;58635;51.198;6.010;2023-02-03T05:23:02;102359.34;;;12.23;61.49
70976;BME280;58635;51.198;6.010;2023-02-03T05:25:27;102360.97;;;12.24;61.52
70976;BME280;58635;51.198;6.010;2023-02-03T05:27:53;102346.53;;;12.22;61.63
70976;BME280;58635;51.198;6.010;2023-02-03T05:30:18;102344.13;;;12.20;61.63
70976;BME280;58635;51.198;6.010;2023-02-03T05:32:43;102336.34;;;12.20;61.51
70976;BME280;58635;51.198;6.010;2023-02-03T05:35:09;102351.72;;;12.22;61.58
70976;BME280;58635;51.198;6.010;2023-02-03T05:37:34;102347.66;;;12.19;61.62
70976;BME280;58635;51.198;6.010;2023-02-03T05:40:00;102358.72;;;12.21;61.61
70976;BME280;58635;51.198;6.010;2023-02-03T05:42:48;102371.69;;;12.21;61.47
70976;BME280;58635;51.198;6.010;2023-02-03T05:45:15;102358.72;;;12.21;61.42
70976;BME280;58635;51.198;6.010;2023-02-03T05:47:40;102361.31;;;12.21;61.57
70976;BME280;58635;51.198;6.010;2023-02-03T05:50:06;102383.84;;;12.21;61.42
70976;BME280;58635;51.198;6.010;2023-02-03T05:52:31;102373.59;;;12.19;61.55
70976;BME280;58635;51.198;6.010;2023-02-03T05:54:57;102394.34;;;12.19;61.43
70976;BME280;58635;51.198;6.010;2023-02-03T05:57:22;102401.19;;;12.20;61.20
70976;BME280;58635;51.198;6.010;2023-02-03T05:59:47;102387.41;;;12.20;61.47
70976;BME280;58635;51.198;6.010;2023-02-03T06:02:14;102385.63;;;12.20;61.60
70976;BME280;58635;51.198;6.010;2023-02-03T06:04:39;102389.16;;;12.19;61.55
70976;BME280;58635;51.198;6.010;2023-02-03T06:07:05;102402.13;;;12.19;61.61
70976;BME280;58635;51.198;6.010;2023-02-03T06:09:31;102384.81;;;12.20;61.58
70976;BME280;58635;51.198;6.010;2023-02-03T06:11:56;102390.81;;;12.20;61.59
70976;BME280;58635;51.198;6.010;2023-02-03T06:14:21;102402.97;;;12.20;61.55
70976;BME280;58635;51.198;6.010;2023-02-03T06:16:47;102397.63;;;12.21;61.56
70976;BME280;58635;51.198;6.010;2023-02-03T06:19:12;102387.25;;;12.21;61.50
70976;BME280;58635;51.198;6.010;2023-02-03T06:21:37;102385.63;;;12.20;61.46
70976;BME280;58635;51.198;6.010;2023-02-03T06:24:03;102384.66;;;12.21;61.39
70976;BME280;58635;51.198;6.010;2023-02-03T06:26:28;102393.72;;;12.17;61.37
70976;BME280;58635;51.198;6.010;2023-02-03T06:28:54;102394.34;;;12.19;61.73
70976;BME280;58635;51.198;6.010;2023-02-03T06:31:19;102390.94;;;12.19;61.39
70976;BME280;58635;51.198;6.010;2023-02-03T06:33:45;102379.63;;;12.20;61.62
70976;BME280;58635;51.198;6.010;2023-02-03T06:36:10;102377.84;;;12.20;61.46
70976;BME280;58635;51.198;6.010;2023-02-03T06:38:36;102386.56;;;12.19;61.49
70976;BME280;58635;51.198;6.010;2023-02-03T06:41:01;102388.34;;;12.19;61.35
70976;BME280;58635;51.198;6.010;2023-02-03T06:43:26;102387.06;;;12.15;61.59
70976;BME280;58635;51.198;6.010;2023-02-03T06:45:52;102385.63;;;12.20;61.44
70976;BME280;58635;51.198;6.010;2023-02-03T06:48:17;102383.66;;;12.22;61.23
70976;BME280;58635;51.198;6.010;2023-02-03T06:50:44;102384.47;;;12.23;61.35
70976;BME280;58635;51.198;6.010;2023-02-03T06:53:09;102372.50;;;12.22;61.60
70976;BME280;58635;51.198;6.010;2023-02-03T06:55:35;102368.91;;;12.23;61.25
70976;BME280;58635;51.198;6.010;2023-02-03T06:58:00;102352.53;;;12.22;61.23
70976;BME280;58635;51.198;6.010;2023-02-03T07:00:25;102362.75;;;12.24;61.49
70976;BME280;58635;51.198;6.010;2023-02-03T07:02:55;102369.56;;;12.25;61.10
70976;BME280;58635;51.198;6.010;2023-02-03T07:05:22;102369.56;;;12.25;61.46
70976;BME280;58635;51.198;6.010;2023-02-03T07:07:49;102380.09;;;12.23;61.47
70976;BME280;58635;51.198;6.010;2023-02-03T07:10:14;102379.47;;;12.21;61.47
70976;BME280;58635;51.198;6.010;2023-02-03T07:12:40;102386.91;;;12.24;61.47
70976;BME280;58635;51.198;6.010;2023-02-03T07:15:06;102382.69;;;12.23;61.38
70976;BME280;58635;51.198;6.010;2023-02-03T07:17:31;102382.69;;;12.23;61.22
70976;BME280;58635;51.198;6.010;2023-02-03T07:19:57;102387.06;;;12.23;61.41
70976;BME280;58635;51.198;6.010;2023-02-03T07:22:22;102390.31;;;12.25;61.49
70976;BME280;58635;51.198;6.010;2023-02-03T07:24:48;102392.72;;;12.26;61.48
70976;BME280;58635;51.198;6.010;2023-02-03T07:27:13;102388.34;;;12.27;61.13
70976;BME280;58635;51.198;6.010;2023-02-03T07:29:39;102390.13;;;12.26;61.33
70976;BME280;58635;51.198;6.010;2023-02-03T07:32:04;102383.97;;;12.27;61.17
70976;BME280;58635;51.198;6.010;2023-02-03T07:34:29;102394.34;;;12.27;61.34
70976;BME280;58635;51.198;6.010;2023-02-03T07:36:55;102396.94;;;12.27;61.17
70976;BME280;58635;51.198;6.010;2023-02-03T07:39:21;102399.38;;;12.29;61.32
70976;BME280;58635;51.198;6.010;2023-02-03T07:41:46;102403.75;;;12.28;60.95
70976;BME280;58635;51.198;6.010;2023-02-03T07:44:12;102400.19;;;12.29;60.90
70976;BME280;58635;51.198;6.010;2023-02-03T07:46:38;102400.00;;;12.31;61.14
70976;BME280;58635;51.198;6.010;2023-02-03T07:49:09;102395.66;;;12.32;61.21
70976;BME280;58635;51.198;6.010;2023-02-03T07:51:35;102385.75;;;12.35;60.93
70976;BME280;58635;51.198;6.010;2023-02-03T07:54:00;102395.31;;;12.35;61.04
70976;BME280;58635;51.198;6.010;2023-02-03T07:56:25;102393.53;;;12.35;61.17
70976;BME280;58635;51.198;6.010;2023-02-03T07:58:51;102402.13;;;12.36;60.92
70976;BME280;58635;51.198;6.010;2023-02-03T08:01:16;102408.47;;;12.33;60.80
70976;BME280;58635;51.198;6.010;2023-02-03T08:03:42;102421.28;;;12.35;60.94
70976;BME280;58635;51.198;6.010;2023-02-03T08:06:07;102411.69;;;12.35;60.88
70976;BME280;58635;51.198;6.010;2023-02-03T08:08:33;102410.72;;;12.36;61.01
70976;BME280;58635;51.198;6.010;2023-02-03T08:10:59;102415.91;;;12.36;60.76
70976;BME280;58635;51.198;6.010;2023-02-03T08:13:25;102415.56;;;12.39;60.89
70976;BME280;58635;51.198;6.010;2023-02-03T08:15:50;102418.16;;;12.39;60.81
70976;BME280;58635;51.198;6.010;2023-02-03T08:18:16;102424.97;;;12.40;60.75
70976;BME280;58635;51.198;6.010;2023-02-03T08:20:41;102426.59;;;12.41;60.65
70976;BME280;58635;51.198;6.010;2023-02-03T08:23:07;102434.38;;;12.41;60.62
70976;BME280;58635;51.198;6.010;2023-02-03T08:25:32;102440.38;;;12.42;60.86
70976;BME280;58635;51.198;6.010;2023-02-03T08:27:57;102434.06;;;12.44;60.90
70976;BME280;58635;51.198;6.010;2023-02-03T08:30:23;102428.72;;;12.46;60.76
70976;BME280;58635;51.198;6.010;2023-02-03T08:32:49;102440.72;;;12.47;60.75
70976;BME280;58635;51.198;6.010;2023-02-03T08:35:14;102453.53;;;12.48;60.37
70976;BME280;58635;51.198;6.010;2023-02-03T08:37:40;102467.13;;;12.50;60.60
70976;BME280;58635;51.198;6.010;2023-02-03T08:40:06;102457.56;;;12.51;60.46
70976;BME280;58635;51.198;6.010;2023-02-03T08:42:32;102463.72;;;12.50;60.47
70976;BME280;58635;51.198;6.010;2023-02-03T08:44:57;102462.91;;;12.49;60.56
70976;BME280;58635;51.198;6.010;2023-02-03T08:47:23;102450.13;;;12.48;60.63
70976;BME280;58635;51.198;6.010;2023-02-03T08:49:48;102455.94;;;12.50;60.90
70976;BME280;58635;51.198;6.010;2023-02-03T08:52:14;102461.94;;;12.50;60.68
70976;BME280;58635;51.198;6.010;2023-02-03T08:54:40;102452.53;;;12.49;60.74
70976;BME280;58635;51.198;6.010;2023-02-03T08:57:06;102460.81;;;12.53;60.76
70976;BME280;58635;51.198;6.010;2023-02-03T08:59:32;102474.59;;;12.53;60.96
70976;BME280;58635;51.198;6.010;2023-02-03T09:02:04;102468.59;;;12.53;61.09
70976;BME280;58635;51.198;6.010;2023-02-03T09:04:29;102475.56;;;12.52;61.10
70976;BME280;58635;51.198;6.010;2023-02-03T09:06:58;102476.38;;;12.53;61.33
70976;BME280;58635;51.198;6.010;2023-02-03T09:09:24;102483.34;;;12.52;61.21
70976;BME280;58635;51.198;6.010;2023-02-03T09:11:51;102471.50;;;12.50;61.44
70976;BME280;58635;51.198;6.010;2023-02-03T09:14:16;102474.75;;;12.52;61.26
70976;BME280;58635;51.198;6.010;2023-02-03T09:16:42;102469.56;;;12.52;61.44
70976;BME280;58635;51.198;6.010;2023-02-03T09:19:07;102465.34;;;12.51;61.53
70976;BME280;58635;51.198;6.010;2023-02-03T09:21:33;102478.97;;;12.53;61.66
70976;BME280;58635;51.198;6.010;2023-02-03T09:24:03;102477.34;;;12.52;61.75
70976;BME280;58635;51.198;6.010;2023-02-03T09:26:28;102472.16;;;12.52;61.77
70976;BME280;58635;51.198;6.010;2023-02-03T09:28:54;102467.31;;;12.49;61.87
70976;BME280;58635;51.198;6.010;2023-02-03T09:31:19;102474.09;;;12.50;61.86
70976;BME280;58635;51.198;6.010;2023-02-03T09:33:45;102481.25;;;12.48;62.10
70976;BME280;58635;51.198;6.010;2023-02-03T09:36:11;102470.72;;;12.49;62.01
70976;BME280;58635;51.198;6.010;2023-02-03T09:38:36;102471.50;;;12.50;62.25
70976;BME280;58635;51.198;6.010;2023-02-03T09:46:50;102491.16;;;12.44;62.69
70976;BME280;58635;51.198;6.010;2023-02-03T09:49:26;102478.19;;;12.44;62.74
70976;BME280;58635;51.198;6.010;2023-02-03T09:51:56;102460.84;;;12.45;62.93
70976;BME280;58635;51.198;6.010;2023-02-03T09:57:29;102478.31;;;12.43;63.27
70976;BME280;58635;51.198;6.010;2023-02-03T09:59:56;102498.13;;;12.44;63.42
70976;BME280;58635;51.198;6.010;2023-02-03T10:02:36;102492.94;;;12.44;63.38
70976;BME280;58635;51.198;6.010;2023-02-03T10:05:21;102499.09;;;12.43;63.73
70976;BME280;58635;51.198;6.010;2023-02-03T10:07:57;102501.84;;;12.41;63.91
70976;BME280;58635;51.198;6.010;2023-02-03T10:18:13;102517.09;;;12.36;64.62
70976;BME280;58635;51.198;6.010;2023-02-03T10:23:35;102517.59;;;12.32;64.76
70976;BME280;58635;51.198;6.010;2023-02-03T10:26:15;102512.56;;;12.30;64.80
70976;BME280;58635;51.198;6.010;2023-02-03T10:29:36;102512.41;;;12.32;65.09
70976;BME280;58635;51.198;6.010;2023-02-03T10:31:35;102497.78;;;12.30;65.08
70976;BME280;58635;51.198;6.010;2023-02-03T10:34:10;102480.31;;;12.33;65.04
70976;BME280;58635;51.198;6.010;2023-02-03T10:37:02;102489.53;;;12.35;64.95
70976;BME280;58635;51.198;6.010;2023-02-03T10:39:40;102491.81;;;12.38;65.13
70976;BME280;58635;51.198;6.010;2023-02-03T10:42:07;102483.84;;;12.40;65.01
70976;BME280;58635;51.198;6.010;2023-02-03T10:44:48;102494.72;;;12.43;64.92
70976;BME280;58635;51.198;6.010;2023-02-03T10:47:30;102490.03;;;12.47;64.84
70976;BME280;58635;51.198;6.010;2023-02-03T10:50:06;102490.16;;;12.53;64.72
70976;BME280;58635;51.198;6.010;2023-02-03T10:52:37;102483.84;;;12.56;64.79
70976;BME280;58635;51.198;6.010;2023-02-03T10:57:52;102473.94;;;12.68;64.47
70976;BME280;58635;51.198;6.010;2023-02-03T11:00:28;102486.41;;;12.72;64.45
70976;BME280;58635;51.198;6.010;2023-02-03T11:03:27;102477.47;;;12.75;64.17
70976;BME280;58635;51.198;6.010;2023-02-03T11:06:16;102482.00;;;12.81;64.30
70976;BME280;58635;51.198;6.010;2023-02-03T11:08:47;102484.44;;;12.82;63.97
70976;BME280;58635;51.198;6.010;2023-02-03T11:11:22;102486.06;;;12.83;63.95
70976;BME280;58635;51.198;6.010;2023-02-03T11:13:54;102479.88;;;12.84;64.06
70976;BME280;58635;51.198;6.010;2023-02-03T11:16:20;102485.38;;;12.89;63.70
70976;BME280;58635;51.198;6.010;2023-02-03T11:21:39;102478.09;;;12.93;63.61
70976;BME280;58635;51.198;6.010;2023-02-03T11:24:42;102487.50;;;12.94;63.43
70976;BME280;58635;51.198;6.010;2023-02-03T11:27:13;102484.56;;;12.97;63.28
70976;BME280;58635;51.198;6.010;2023-02-03T11:29:46;102471.41;;;12.99;63.18
70976;BME280;58635;51.198;6.010;2023-02-03T11:32:19;102472.84;;;13.01;63.12
70976;BME280;58635;51.198;6.010;2023-02-03T11:34:58;102478.69;;;13.03;62.98
70976;BME280;58635;51.198;6.010;2023-02-03T11:39:54;102478.53;;;13.05;62.97
70976;BME280;58635;51.198;6.010;2023-02-03T11:42:21;102485.97;;;13.08;62.64
70976;BME280;58635;51.198;6.010;2023-02-03T11:44:47;102479.81;;;13.09;62.74
70976;BME280;58635;51.198;6.010;2023-02-03T11:47:13;102479.63;;;13.10;62.66
70976;BME280;58635;51.198;6.010;2023-02-03T11:55:06;102479.28;;;13.13;62.48
70976;BME280;58635;51.198;6.010;2023-02-03T11:57:53;102478.16;;;13.16;62.47
70976;BME280;58635;51.198;6.010;2023-02-03T12:00:55;102477.84;;;13.19;62.30
70976;BME280;58635;51.198;6.010;2023-02-03T12:03:48;102480.91;;;13.23;62.16
70976;BME280;58635;51.198;6.010;2023-02-03T12:29:05;102496.59;;;13.37;61.91
70976;BME280;58635;51.198;6.010;2023-02-03T12:34:28;102496.09;;;13.42;61.93
70976;BME280;58635;51.198;6.010;2023-02-03T12:37:16;102502.91;;;13.43;61.94
70976;BME280;58635;51.198;6.010;2023-02-03T12:40:02;102489.91;;;13.43;61.67
70976;BME280;58635;51.198;6.010;2023-02-03T12:42:33;102482.75;;;13.45;61.82
70976;BME280;58635;51.198;6.010;2023-02-03T12:45:11;102496.38;;;13.47;61.64
70976;BME280;58635;51.198;6.010;2023-02-03T12:48:16;102499.78;;;13.48;61.75
70976;BME280;58635;51.198;6.010;2023-02-03T12:50:46;102507.13;;;13.44;61.63
70976;BME280;58635;51.198;6.010;2023-02-03T12:53:33;102511.53;;;13.43;61.91
70976;BME280;58635;51.198;6.010;2023-02-03T12:56:08;102515.56;;;13.46;61.75
70976;BME280;58635;51.198;6.010;2023-02-03T12:58:40;102524.19;;;13.46;61.75
70976;BME280;58635;51.198;6.010;2023-02-03T13:01:15;102523.38;;;13.46;61.71
70976;BME280;58635;51.198;6.010;2023-02-03T13:17:15;102515.22;;;13.49;61.84
70976;BME280;58635;51.198;6.010;2023-02-03T13:19:54;102517.81;;;13.49;61.71
70976;BME280;58635;51.198;6.010;2023-02-03T13:22:22;102522.06;;;13.50;61.91
70976;BME280;58635;51.198;6.010;2023-02-03T13:25:04;102530.16;;;13.55;61.80
70976;BME280;58635;51.198;6.010;2023-02-03T13:27:38;102530.16;;;13.55;61.64
70976;BME280;58635;51.198;6.010;2023-02-03T13:36:15;102531.25;;;13.61;61.47
70976;BME280;58635;51.198;6.010;2023-02-03T13:39:02;102525.09;;;13.62;61.49
70976;BME280;58635;51.198;6.010;2023-02-03T13:41:42;102520.03;;;13.60;61.50
70976;BME280;58635;51.198;6.010;2023-02-03T13:44:11;102515.50;;;13.62;61.46
70976;BME280;58635;51.198;6.010;2023-02-03T13:46:40;102507.34;;;13.65;61.61
70976;BME280;58635;51.198;6.010;2023-02-03T13:49:06;102511.41;;;13.68;61.52
70976;BME280;58635;51.198;6.010;2023-02-03T13:51:41;102518.03;;;13.70;61.58
70976;BME280;58635;51.198;6.010;2023-02-03T13:54:35;102517.22;;;13.70;61.45
70976;BME280;58635;51.198;6.010;2023-02-03T13:57:03;102509.44;;;13.70;61.56
70976;BME280;58635;51.198;6.010;2023-02-03T14:07:33;102518.97;;;13.78;61.46
70976;BME280;58635;51.198;6.010;2023-02-03T14:10:20;102518.97;;;13.78;61.42
70976;BME280;58635;51.198;6.010;2023-02-03T14:17:56;102524.19;;;13.78;61.42
70976;BME280;58635;51.198;6.010;2023-02-03T14:22:58;102525.59;;;13.88;61.17
70976;BME280;58635;51.198;6.010;2023-02-03T14:25:33;102525.88;;;13.93;61.13
70976;BME280;58635;51.198;6.010;2023-02-03T14:28:28;102519.34;;;13.97;60.86
70976;BME280;58635;51.198;6.010;2023-02-03T14:31:21;102527.63;;;14.01;60.81
70976;BME280;58635;51.198;6.010;2023-02-03T14:39:04;102509.63;;;14.14;60.52
70976;BME280;58635;51.198;6.010;2023-02-03T14:44:22;102523.22;;;14.24;60.30
70976;BME280;58635;51.198;6.010;2023-02-03T14:47:09;102533.25;;;14.27;60.24
70976;BME280;58635;51.198;6.010;2023-02-03T14:52:52;102530.91;;;14.18;60.13
70976;BME280;58635;51.198;6.010;2023-02-03T14:55:34;102537.44;;;14.14;60.69
70976;BME280;58635;51.198;6.010;2023-02-03T14:58:20;102541.53;;;14.08;60.41
70976;BME280;58635;51.198;6.010;2023-02-03T15:00:47;102527.78;;;13.99;60.45
70976;BME280;58635;51.198;6.010;2023-02-03T15:03:18;102537.22;;;14.00;60.50
70976;BME280;58635;51.198;6.010;2023-02-03T15:06:02;102546.81;;;14.00;60.69
70976;BME280;58635;51.198;6.010;2023-02-03T15:11:15;102552.34;;;13.97;60.77
70976;BME280;58635;51.198;6.010;2023-02-03T15:13:40;102553.66;;;13.93;60.91